Time;durP1;ratioP1;P1;durP2;ratioP2;P2;SDS_P1;SDS_P2;PMS_P1;PMS_P2;Temp;Humidity;BMP_temperature;BMP_pressure;BME280_temperature;BME280_humidity;BME280_pressure;Samples;Min_cycle;Max_cycle;Signal;HPM_P1;HPM_P2
2024/04/14 00:01:29;;;;;;;;;;;;;;;14.93;59.67;101666.36;107607;1251;111486;-64
2024/04/14 00:03:58;;;;;;;;;;;;;;;14.86;59.88;101666.79;107657;1251;108382;-64
2024/04/14 00:06:26;;;;;;;;;;;;;;;14.80;60.29;101670.64;107626;1251;108761;-64
2024/04/14 00:08:54;;;;;;;;;;;;;;;14.72;60.28;101668.58;107603;1254;97813;-64
2024/04/14 00:11:22;;;;;;;;;;;;;;;14.67;60.28;101667.25;107641;1256;97834;-64
2024/04/14 00:13:51;;;;;;;;;;;;;;;14.62;60.30;101666.77;107624;1254;112655;-63
2024/04/14 00:16:19;;;;;;;;;;;;;;;14.59;60.40;101664.94;107620;1253;108297;-63
2024/04/14 00:18:47;;;;;;;;;;;;;;;14.53;60.86;101666.84;107589;1255;107151;-64
2024/04/14 00:21:16;;;;;;;;;;;;;;;14.48;60.78;101662.81;107572;1253;97812;-64
2024/04/14 00:23:44;;;;;;;;;;;;;;;14.44;60.67;101659.77;107625;1256;97761;-63
2024/04/14 00:26:12;;;;;;;;;;;;;;;14.41;60.87;101658.25;107631;1256;112820;-64
2024/04/14 00:28:40;;;;;;;;;;;;;;;14.38;60.80;101658.89;107597;1254;108267;-64
2024/04/14 00:31:08;;;;;;;;;;;;;;;14.34;60.99;101656.31;107569;1252;107519;-63
2024/04/14 00:33:36;;;;;;;;;;;;;;;14.30;61.29;101659.05;107614;1255;97963;-63
2024/04/14 00:36:05;;;;;;;;;;;;;;;14.25;61.21;101661.63;107616;1255;97909;-63
2024/04/14 00:38:33;;;;;;;;;;;;;;;14.22;61.41;101662.30;107588;1251;111814;-64
2024/04/14 00:41:01;;;;;;;;;;;;;;;14.18;61.78;101660.33;107578;1251;107626;-63
2024/04/14 00:43:30;;;;;;;;;;;;;;;14.13;61.93;101661.42;107583;1254;107471;-64
2024/04/14 00:45:58;;;;;;;;;;;;;;;14.09;61.93;101658.57;107601;1251;97834;-64
2024/04/14 00:48:26;;;;;;;;;;;;;;;14.06;61.77;101658.84;107663;1252;97742;-64
2024/04/14 00:50:55;;;;;;;;;;;;;;;14.03;61.92;101661.83;107571;1251;111377;-63
2024/04/14 00:53:23;;;;;;;;;;;;;;;14.00;62.06;101661.58;107595;1250;108250;-63
2024/04/14 00:55:51;;;;;;;;;;;;;;;13.97;61.85;101658.21;107572;1251;107550;-64
2024/04/14 00:58:19;;;;;;;;;;;;;;;13.93;61.82;101660.67;107613;1251;97816;-64
2024/04/14 01:00:47;;;;;;;;;;;;;;;13.91;62.00;101659.96;107592;1254;97722;-64
2024/04/14 01:03:15;;;;;;;;;;;;;;;13.90;61.97;101661.70;107666;1254;112318;-64
2024/04/14 01:05:44;;;;;;;;;;;;;;;13.89;62.02;101667.74;107565;1254;108313;-65
2024/04/14 01:08:12;;;;;;;;;;;;;;;13.87;62.45;101667.35;107601;1254;108482;-64
2024/04/14 01:10:40;;;;;;;;;;;;;;;13.86;62.61;101668.71;107524;1255;97833;-64
2024/04/14 01:13:08;;;;;;;;;;;;;;;13.83;62.66;101668.41;107650;1254;97944;-63
2024/04/14 01:15:37;;;;;;;;;;;;;;;13.82;63.01;101669.28;107627;1254;111336;-63
2024/04/14 01:18:07;;;;;;;;;;;;;;;13.81;63.36;101670.05;107597;1256;108028;-64
2024/04/14 01:20:36;;;;;;;;;;;;;;;13.80;63.35;101668.14;107539;1254;106059;-64
2024/04/14 01:23:04;;;;;;;;;;;;;;;13.81;63.68;101665.58;107581;1254;97832;-64
2024/04/14 01:25:32;;;;;;;;;;;;;;;13.82;63.53;101668.00;107669;1254;97774;-64
2024/04/14 01:28:00;;;;;;;;;;;;;;;13.80;63.72;101666.03;107620;1254;111250;-64
2024/04/14 01:30:28;;;;;;;;;;;;;;;13.77;63.72;101669.83;107584;1254;108970;-64
2024/04/14 01:32:57;;;;;;;;;;;;;;;13.72;63.68;101667.05;107626;1254;108441;-64
2024/04/14 01:35:26;;;;;;;;;;;;;;;13.67;63.65;101660.42;107561;1254;99178;-64
2024/04/14 01:37:54;;;;;;;;;;;;;;;13.63;63.78;101664.79;107598;1255;99266;-64
2024/04/14 01:40:39;;;;;;;;;;;;;;;13.58;64.14;101662.29;107612;1254;113600;-64
2024/04/14 01:43:07;;;;;;;;;;;;;;;13.54;64.02;101663.55;107631;1256;107450;-64
2024/04/14 01:45:35;;;;;;;;;;;;;;;13.50;64.18;101663.06;107584;1254;108656;-64
2024/04/14 01:48:04;;;;;;;;;;;;;;;13.42;64.33;101666.41;107566;1254;99203;-63
2024/04/14 01:50:32;;;;;;;;;;;;;;;13.35;64.73;101665.75;107583;1256;99253;-63
2024/04/14 01:53:00;;;;;;;;;;;;;;;13.29;64.87;101666.38;107571;1251;113267;-64
2024/04/14 01:55:28;;;;;;;;;;;;;;;13.26;64.77;101666.43;107488;1250;108405;-64
2024/04/14 01:57:59;;;;;;;;;;;;;;;13.23;64.59;101663.14;107634;1251;107070;-64
2024/04/14 02:00:27;;;;;;;;;;;;;;;13.19;64.76;101665.08;107471;1254;99198;-64
2024/04/14 02:02:56;;;;;;;;;;;;;;;13.14;64.77;101663.48;107571;1254;99067;-64
2024/04/14 02:05:24;;;;;;;;;;;;;;;13.11;64.84;101666.27;107601;1254;112918;-64
2024/04/14 02:07:52;;;;;;;;;;;;;;;13.08;65.10;101666.77;107616;1254;107868;-64
2024/04/14 02:10:20;;;;;;;;;;;;;;;13.03;64.89;101666.78;107502;1254;108327;-64
2024/04/14 02:12:48;;;;;;;;;;;;;;;13.00;65.11;101670.67;107498;1256;99182;-65
2024/04/14 02:15:16;;;;;;;;;;;;;;;12.95;65.04;101673.44;107588;1254;99064;-64
2024/04/14 02:17:44;;;;;;;;;;;;;;;12.89;65.04;101673.16;107580;1256;112084;-65
2024/04/14 02:20:13;;;;;;;;;;;;;;;12.83;65.64;101672.83;107573;1255;108322;-64
2024/04/14 02:22:41;;;;;;;;;;;;;;;12.74;65.51;101669.01;107609;1252;108103;-64
2024/04/14 02:25:09;;;;;;;;;;;;;;;12.70;65.49;101667.39;107569;1254;99250;-64
2024/04/14 02:27:37;;;;;;;;;;;;;;;12.64;65.57;101666.43;107588;1254;99192;-64
2024/04/14 02:30:06;;;;;;;;;;;;;;;12.58;65.88;101664.59;107564;1255;112789;-62
2024/04/14 02:32:34;;;;;;;;;;;;;;;12.54;65.82;101658.44;107606;1256;106347;-63
2024/04/14 02:35:03;;;;;;;;;;;;;;;12.48;65.78;101654.61;107579;1255;108286;-63
2024/04/14 02:37:31;;;;;;;;;;;;;;;12.45;65.88;101661.32;107586;1254;99182;-64
2024/04/14 02:39:59;;;;;;;;;;;;;;;12.44;65.95;101666.49;107600;1253;99150;-64
2024/04/14 02:42:31;;;;;;;;;;;;;;;12.39;65.85;101663.45;107610;1254;113328;-63
2024/04/14 02:44:59;;;;;;;;;;;;;;;12.36;65.94;101664.40;107622;1255;107886;-63
2024/04/14 02:47:27;;;;;;;;;;;;;;;12.32;65.91;101665.31;107531;1254;108194;-63
2024/04/14 02:49:55;;;;;;;;;;;;;;;12.27;65.96;101670.01;107618;1254;99266;-64
2024/04/14 02:52:23;;;;;;;;;;;;;;;12.25;66.08;101674.35;107620;1254;99828;-63
2024/04/14 02:54:51;;;;;;;;;;;;;;;12.24;66.03;101672.05;107649;1256;112157;-65
2024/04/14 02:57:19;;;;;;;;;;;;;;;12.26;66.52;101672.41;107646;1254;108410;-63
2024/04/14 02:59:48;;;;;;;;;;;;;;;12.28;66.14;101677.35;107586;1256;108297;-64
2024/04/14 03:02:16;;;;;;;;;;;;;;;12.28;66.32;101674.04;107578;1254;99295;-63
2024/04/14 03:04:48;;;;;;;;;;;;;;;12.29;66.41;101670.77;107555;1254;99163;-63
2024/04/14 03:07:16;;;;;;;;;;;;;;;12.28;66.61;101667.23;107598;1251;113277;-65
2024/04/14 03:09:44;;;;;;;;;;;;;;;12.28;66.69;101671.34;107585;1254;108505;-64
2024/04/14 03:12:12;;;;;;;;;;;;;;;12.27;66.61;101668.24;107519;1253;107280;-64
2024/04/14 03:14:40;;;;;;;;;;;;;;;12.26;66.48;101671.54;107572;1251;99196;-64
2024/04/14 03:17:09;;;;;;;;;;;;;;;12.25;66.79;101673.22;107583;1255;99140;-64
2024/04/14 03:19:38;;;;;;;;;;;;;;;12.24;66.65;101676.42;107586;1254;112832;-63
2024/04/14 03:22:06;;;;;;;;;;;;;;;12.20;66.79;101675.39;107598;1255;107911;-64
2024/04/14 03:24:34;;;;;;;;;;;;;;;12.18;66.53;101673.61;107522;1253;107684;-63
2024/04/14 03:27:02;;;;;;;;;;;;;;;12.15;66.56;101675.42;107564;1255;99162;-64
2024/04/14 03:29:30;;;;;;;;;;;;;;;12.14;66.50;101675.03;107594;1253;99185;-64
2024/04/14 03:31:57;;;;;;;;;;;;;;;12.08;66.35;101675.30;107627;1254;113190;-64
2024/04/14 03:34:26;;;;;;;;;;;;;;;12.04;66.63;101674.75;107538;1254;107928;-65
2024/04/14 03:36:55;;;;;;;;;;;;;;;11.99;66.73;101677.66;107556;1254;106977;-65
2024/04/14 03:39:22;;;;;;;;;;;;;;;11.95;66.92;101678.66;107575;1254;99181;-65
2024/04/14 03:41:50;;;;;;;;;;;;;;;11.92;67.03;101680.31;107618;1251;99064;-65
2024/04/14 03:44:18;;;;;;;;;;;;;;;11.91;67.01;101679.70;107593;1255;113060;-66
2024/04/14 03:46:46;;;;;;;;;;;;;;;11.90;66.89;101680.09;107596;1254;107855;-63
2024/04/14 03:49:15;;;;;;;;;;;;;;;11.90;67.00;101683.74;107580;1256;108418;-64
2024/04/14 03:51:43;;;;;;;;;;;;;;;11.89;67.09;101683.27;107571;1251;99387;-63
2024/04/14 03:54:11;;;;;;;;;;;;;;;11.87;67.29;101680.02;107542;1251;99189;-65
2024/04/14 03:56:39;;;;;;;;;;;;;;;11.88;67.53;101676.47;107585;1251;113158;-64
2024/04/14 03:59:07;;;;;;;;;;;;;;;11.88;67.71;101678.67;107604;1256;108371;-65
2024/04/14 04:01:34;;;;;;;;;;;;;;;11.87;67.93;101678.39;107555;1254;108005;-62
2024/04/14 04:04:03;;;;;;;;;;;;;;;11.88;67.72;101679.15;107558;1255;99703;-63
2024/04/14 04:06:31;;;;;;;;;;;;;;;11.91;67.85;101679.14;107517;1256;99273;-63
2024/04/14 04:08:59;;;;;;;;;;;;;;;11.93;68.06;101678.98;107616;1251;112572;-64
2024/04/14 04:11:28;;;;;;;;;;;;;;;11.92;68.18;101681.41;107576;1251;108470;-63
2024/04/14 04:13:57;;;;;;;;;;;;;;;11.93;67.97;101677.08;107512;1251;108088;-64
2024/04/14 04:16:25;;;;;;;;;;;;;;;11.94;68.05;101680.15;107557;1257;99282;-62
2024/04/14 04:18:53;;;;;;;;;;;;;;;11.98;68.19;101681.88;107661;1254;99095;-64
2024/04/14 04:21:26;;;;;;;;;;;;;;;11.99;68.28;101683.02;107635;1255;112419;-62
2024/04/14 04:23:54;;;;;;;;;;;;;;;11.98;68.21;101684.00;107588;1254;107960;-63
2024/04/14 04:26:22;;;;;;;;;;;;;;;12.01;68.49;101680.35;107569;1254;108187;-64
2024/04/14 04:28:50;;;;;;;;;;;;;;;12.07;68.81;101678.08;107589;1257;99189;-62
2024/04/14 04:31:18;;;;;;;;;;;;;;;12.14;69.10;101679.32;107613;1255;99182;-63
2024/04/14 04:33:46;;;;;;;;;;;;;;;12.19;68.87;101677.99;107596;1254;113256;-63
2024/04/14 04:36:17;;;;;;;;;;;;;;;12.25;68.67;101674.48;107619;1257;108531;-62
2024/04/14 04:38:45;;;;;;;;;;;;;;;12.30;68.49;101676.60;107581;1255;108304;-63
2024/04/14 04:41:13;;;;;;;;;;;;;;;12.33;68.50;101678.83;107562;1255;99165;-63
2024/04/14 04:43:42;;;;;;;;;;;;;;;12.39;68.51;101678.75;107603;1254;100872;-63
2024/04/14 04:46:10;;;;;;;;;;;;;;;12.44;68.43;101680.33;107590;1254;112698;-63
2024/04/14 04:48:38;;;;;;;;;;;;;;;12.48;68.50;101680.67;107625;1254;108251;-63
2024/04/14 04:51:07;;;;;;;;;;;;;;;12.55;68.70;101680.52;107591;1253;108619;-64
2024/04/14 04:53:35;;;;;;;;;;;;;;;12.61;68.66;101679.62;107586;1254;99287;-63
2024/04/14 04:56:03;;;;;;;;;;;;;;;12.72;68.70;101679.33;107612;1254;99280;-63
2024/04/14 04:58:31;;;;;;;;;;;;;;;12.82;68.60;101678.83;107616;1251;112248;-63
2024/04/14 05:00:59;;;;;;;;;;;;;;;12.92;68.50;101675.80;107550;1250;108455;-63
2024/04/14 05:03:28;;;;;;;;;;;;;;;13.02;68.33;101675.67;107636;1251;107943;-63
2024/04/14 05:06:01;;;;;;;;;;;;;;;13.14;68.28;101673.46;107477;1254;99067;-63
2024/04/14 05:08:29;;;;;;;;;;;;;;;13.23;68.00;101670.15;107644;1256;99076;-64
2024/04/14 05:10:57;;;;;;;;;;;;;;;13.32;67.79;101672.63;107569;1254;112476;-62
2024/04/14 05:13:26;;;;;;;;;;;;;;;13.39;67.45;101672.03;107641;1254;107309;-63
2024/04/14 05:15:54;;;;;;;;;;;;;;;13.50;67.44;101671.09;107551;1255;109016;-62
2024/04/14 05:18:23;;;;;;;;;;;;;;;13.60;67.28;101663.20;107526;1254;99189;-63
2024/04/14 05:20:51;;;;;;;;;;;;;;;13.69;66.35;101661.34;107666;1254;99176;-63
2024/04/14 05:23:19;;;;;;;;;;;;;;;13.78;65.89;101663.27;107625;1251;112976;-63
2024/04/14 05:25:48;;;;;;;;;;;;;;;13.87;65.80;101660.70;107500;1251;108311;-63
2024/04/14 05:28:16;;;;;;;;;;;;;;;13.97;65.70;101661.83;107570;1254;107353;-64
2024/04/14 05:30:46;;;;;;;;;;;;;;;14.04;65.27;101662.58;107608;1254;99177;-65
2024/04/14 05:33:14;;;;;;;;;;;;;;;14.12;64.72;101665.15;107612;1254;99168;-63
2024/04/14 05:35:52;;;;;;;;;;;;;;;14.19;64.25;101660.55;107608;1254;111993;-63
2024/04/14 05:38:19;;;;;;;;;;;;;;;14.26;63.47;101655.82;107568;1254;107556;-63
2024/04/14 05:40:48;;;;;;;;;;;;;;;14.33;63.42;101651.54;107585;1255;108363;-63
2024/04/14 05:43:16;;;;;;;;;;;;;;;14.42;62.98;101647.91;107557;1254;99233;-63
2024/04/14 05:45:44;;;;;;;;;;;;;;;14.50;62.60;101645.52;107630;1254;99281;-63
2024/04/14 05:48:13;;;;;;;;;;;;;;;14.57;62.59;101636.01;107533;1254;113694;-63
2024/04/14 05:50:42;;;;;;;;;;;;;;;14.65;61.97;101633.17;107606;1255;108337;-63
2024/04/14 05:53:12;;;;;;;;;;;;;;;14.71;61.87;101628.67;107651;1254;107521;-63
2024/04/14 05:55:40;;;;;;;;;;;;;;;14.77;61.90;101624.62;107605;1253;99205;-63
2024/04/14 05:58:08;;;;;;;;;;;;;;;14.85;61.65;101629.89;107625;1253;99067;-63
2024/04/14 06:00:36;;;;;;;;;;;;;;;14.92;61.65;101626.33;107590;1254;113610;-63
2024/04/14 06:03:05;;;;;;;;;;;;;;;14.99;61.79;101627.68;107586;1251;107698;-63
2024/04/14 06:05:33;;;;;;;;;;;;;;;15.08;61.49;101623.08;107656;1254;108825;-63
2024/04/14 06:08:03;;;;;;;;;;;;;;;15.15;61.04;101620.06;107609;1254;99223;-63
2024/04/14 06:10:31;;;;;;;;;;;;;;;15.25;60.99;101616.80;107663;1253;99067;-63
2024/04/14 06:12:58;;;;;;;;;;;;;;;15.35;60.76;101615.65;107609;1251;112872;-63
2024/04/14 06:15:27;;;;;;;;;;;;;;;15.43;60.71;101617.35;107586;1254;108915;-64
2024/04/14 06:17:55;;;;;;;;;;;;;;;15.52;60.27;101621.02;107534;1251;107152;-63
2024/04/14 06:20:23;;;;;;;;;;;;;;;15.62;59.91;101616.45;107557;1254;99198;-64
2024/04/14 06:22:51;;;;;;;;;;;;;;;15.73;59.40;101616.30;107643;1252;99170;-63
2024/04/14 06:25:19;;;;;;;;;;;;;;;15.84;59.32;101614.55;107638;1254;112689;-64
2024/04/14 06:27:47;;;;;;;;;;;;;;;15.95;58.95;101611.55;107539;1251;107487;-63
2024/04/14 06:30:15;;;;;;;;;;;;;;;16.07;58.93;101607.74;107536;1251;107780;-63
2024/04/14 06:32:44;;;;;;;;;;;;;;;16.19;58.38;101599.21;107485;1251;99303;-62
2024/04/14 06:35:12;;;;;;;;;;;;;;;16.29;57.72;101600.91;107613;1254;99183;-63
2024/04/14 06:37:40;;;;;;;;;;;;;;;16.38;58.00;101599.63;107633;1251;113175;-63
2024/04/14 06:40:09;;;;;;;;;;;;;;;16.49;57.98;101597.70;107434;1254;108712;-63
2024/04/14 06:42:38;;;;;;;;;;;;;;;16.60;57.41;101588.40;107630;1256;107025;-64
2024/04/14 06:45:06;;;;;;;;;;;;;;;16.69;57.70;101585.14;107576;1256;99253;-62
2024/04/14 06:47:34;;;;;;;;;;;;;;;16.78;57.40;101583.50;107648;1254;99191;-63
2024/04/14 06:50:03;;;;;;;;;;;;;;;16.88;57.21;101579.60;107513;1251;112689;-64
2024/04/14 06:52:31;;;;;;;;;;;;;;;16.96;57.32;101574.25;107586;1251;106722;-63
2024/04/14 06:54:59;;;;;;;;;;;;;;;17.06;57.05;101568.55;107499;1251;108470;-62
2024/04/14 06:57:27;;;;;;;;;;;;;;;17.16;56.67;101558.29;107591;1251;99060;-63
2024/04/14 06:59:55;;;;;;;;;;;;;;;17.27;56.23;101560.24;107492;1251;99160;-64
2024/04/14 07:02:23;;;;;;;;;;;;;;;17.36;55.85;101554.74;107606;1251;112930;-63
2024/04/14 07:04:51;;;;;;;;;;;;;;;17.45;55.93;101551.51;107546;1254;108443;-63
2024/04/14 07:07:19;;;;;;;;;;;;;;;17.53;56.16;101555.48;107535;1251;108133;-63
2024/04/14 07:09:47;;;;;;;;;;;;;;;17.63;55.54;101553.14;107511;1251;99169;-64
2024/04/14 07:12:15;;;;;;;;;;;;;;;17.78;54.92;101545.95;107557;1253;99176;-63
2024/04/14 07:14:43;;;;;;;;;;;;;;;17.93;54.23;101543.92;107662;1253;112719;-65
2024/04/14 07:17:11;;;;;;;;;;;;;;;18.04;54.22;101544.46;107644;1254;107962;-64
2024/04/14 07:19:40;;;;;;;;;;;;;;;18.14;54.06;101545.53;107520;1251;108297;-63
2024/04/14 07:22:08;;;;;;;;;;;;;;;18.26;53.46;101543.20;107562;1257;99099;-63
2024/04/14 07:24:36;;;;;;;;;;;;;;;18.36;52.94;101545.22;107600;1254;99183;-63
2024/04/14 07:27:06;;;;;;;;;;;;;;;18.46;52.71;101535.11;107598;1254;113100;-64
2024/04/14 07:29:34;;;;;;;;;;;;;;;18.58;52.41;101534.23;107621;1254;107787;-63
2024/04/14 07:32:02;;;;;;;;;;;;;;;18.70;51.02;101530.72;107602;1254;108199;-63
2024/04/14 07:34:30;;;;;;;;;;;;;;;18.83;50.96;101526.17;107691;1254;99316;-64
2024/04/14 07:36:59;;;;;;;;;;;;;;;18.94;49.41;101526.25;107621;1251;99205;-63
2024/04/14 07:39:27;;;;;;;;;;;;;;;19.08;49.48;101525.40;107549;1251;113093;-63
2024/04/14 07:41:57;;;;;;;;;;;;;;;19.20;49.09;101521.35;107560;1254;108393;-63
2024/04/14 07:44:25;;;;;;;;;;;;;;;19.34;48.97;101524.52;107543;1254;108102;-63
2024/04/14 07:46:53;;;;;;;;;;;;;;;19.47;48.30;101518.71;107538;1254;99191;-63
2024/04/14 07:49:22;;;;;;;;;;;;;;;19.61;47.46;101522.69;107562;1251;99073;-63
2024/04/14 07:51:50;;;;;;;;;;;;;;;19.70;47.52;101514.36;107575;1254;112539;-63
2024/04/14 07:54:18;;;;;;;;;;;;;;;19.84;46.95;101509.52;107473;1251;107399;-63
2024/04/14 07:56:46;;;;;;;;;;;;;;;19.95;46.59;101502.23;107551;1254;107926;-63
2024/04/14 07:59:14;;;;;;;;;;;;;;;20.09;46.45;101496.45;107420;1254;244341;-63
2024/04/14 08:01:41;;;;;;;;;;;;;;;20.25;45.77;101501.44;107553;1252;99069;-63
2024/04/14 08:04:09;;;;;;;;;;;;;;;20.43;45.62;101493.48;107592;1254;112103;-64
2024/04/14 08:06:38;;;;;;;;;;;;;;;20.62;45.18;101494.71;107616;1253;108469;-64
2024/04/14 08:09:06;;;;;;;;;;;;;;;20.80;44.56;101490.16;107556;1255;107832;-64
2024/04/14 08:11:34;;;;;;;;;;;;;;;20.96;44.66;101480.63;107551;1252;99288;-63
2024/04/14 08:14:02;;;;;;;;;;;;;;;21.11;43.74;101480.22;107612;1251;99201;-63
2024/04/14 08:16:30;;;;;;;;;;;;;;;21.24;43.51;101476.67;107603;1254;112634;-63
2024/04/14 08:18:57;;;;;;;;;;;;;;;21.39;41.49;101476.80;107600;1250;107811;-64
2024/04/14 08:21:25;;;;;;;;;;;;;;;21.50;41.48;101468.52;107554;1251;107701;-63
2024/04/14 08:23:53;;;;;;;;;;;;;;;21.63;41.44;101468.36;107518;1251;99181;-63
2024/04/14 08:26:21;;;;;;;;;;;;;;;21.80;41.58;101468.84;107493;1254;99160;-63
2024/04/14 08:28:49;;;;;;;;;;;;;;;21.96;41.33;101471.55;107592;1253;112495;-64
2024/04/14 08:31:17;;;;;;;;;;;;;;;22.16;41.41;101464.11;107594;1254;107528;-64
2024/04/14 08:33:45;;;;;;;;;;;;;;;22.39;40.28;101462.70;107695;1254;107883;-63
2024/04/14 08:36:14;;;;;;;;;;;;;;;22.59;39.82;101460.62;107561;1251;99188;-63
2024/04/14 08:38:42;;;;;;;;;;;;;;;22.79;39.28;101453.15;107480;1251;99090;-65
2024/04/14 08:41:15;;;;;;;;;;;;;;;22.97;38.87;101456.91;107520;1254;112895;-64
2024/04/14 08:43:43;;;;;;;;;;;;;;;23.07;37.94;101453.91;107655;1252;108106;-64
2024/04/14 08:46:15;;;;;;;;;;;;;;;23.21;37.99;101451.77;107631;1254;108499;-63
2024/04/14 08:48:46;;;;;;;;;;;;;;;23.36;37.44;101456.31;107697;1255;99313;-63
2024/04/14 08:51:18;;;;;;;;;;;;;;;23.53;37.27;101445.86;107561;1253;99163;-65
2024/04/14 08:53:49;;;;;;;;;;;;;;;23.71;36.87;101442.54;107654;1251;112564;-64
2024/04/14 08:56:17;;;;;;;;;;;;;;;23.85;36.14;101448.29;107631;1251;107884;-65
2024/04/14 08:58:46;;;;;;;;;;;;;;;23.96;35.74;101443.04;107664;1251;107609;-64
2024/04/14 09:01:14;;;;;;;;;;;;;;;24.13;36.25;101433.38;107642;1254;99183;-64
2024/04/14 09:03:42;;;;;;;;;;;;;;;24.38;36.39;101433.13;107599;1251;99118;-62
2024/04/14 09:06:11;;;;;;;;;;;;;;;24.61;36.04;101433.35;107652;1251;113582;-64
2024/04/14 09:08:39;;;;;;;;;;;;;;;24.85;35.25;101426.42;107576;1251;108565;-64
2024/04/14 09:11:07;;;;;;;;;;;;;;;25.11;35.68;101423.20;107493;1254;108265;-65
2024/04/14 09:13:36;;;;;;;;;;;;;;;25.26;34.09;101424.98;107666;1253;99250;-63
2024/04/14 09:16:07;;;;;;;;;;;;;;;25.49;34.29;101418.37;107651;1251;99099;-65
2024/04/14 09:18:38;;;;;;;;;;;;;;;25.77;33.53;101417.19;107678;1251;113582;-64
2024/04/14 09:21:06;;;;;;;;;;;;;;;26.01;33.46;101408.74;107645;1251;108096;-64
2024/04/14 09:23:34;;;;;;;;;;;;;;;26.28;33.23;101403.55;107571;1250;108729;-64
2024/04/14 09:26:04;;;;;;;;;;;;;;;26.54;32.77;101395.41;107585;1251;99172;-64
2024/04/14 09:28:32;;;;;;;;;;;;;;;26.76;32.24;101390.42;107533;1251;99186;-64
2024/04/14 09:31:00;;;;;;;;;;;;;;;27.00;31.91;101389.32;107519;1251;113193;-64
2024/04/14 09:33:31;;;;;;;;;;;;;;;27.14;31.59;101387.57;107486;1251;108302;-63
2024/04/14 09:36:00;;;;;;;;;;;;;;;27.23;31.68;101381.55;107496;1254;107944;-63
2024/04/14 09:38:29;;;;;;;;;;;;;;;27.59;31.74;101383.19;107573;1255;99201;-63
2024/04/14 09:40:58;;;;;;;;;;;;;;;27.91;31.04;101382.02;107742;1254;99178;-63
2024/04/14 09:43:27;;;;;;;;;;;;;;;28.23;30.87;101382.10;107685;1254;113378;-64
2024/04/14 09:45:56;;;;;;;;;;;;;;;28.56;30.23;101376.27;107646;1254;108062;-64
2024/04/14 09:48:25;;;;;;;;;;;;;;;28.55;29.06;101376.92;107607;1254;110653;-64
2024/04/14 09:50:54;;;;;;;;;;;;;;;28.68;29.79;101363.22;107601;1253;99288;-64
2024/04/14 09:53:23;;;;;;;;;;;;;;;29.12;29.65;101361.46;107718;1253;99169;-65
2024/04/14 09:55:51;;;;;;;;;;;;;;;29.48;29.07;101356.71;107664;1253;113702;-65
2024/04/14 09:58:19;;;;;;;;;;;;;;;29.47;28.21;101351.36;107647;1254;108370;-65
2024/04/14 10:00:47;;;;;;;;;;;;;;;29.33;28.32;101346.84;107594;1250;108301;-64
2024/04/14 10:03:15;;;;;;;;;;;;;;;29.41;28.71;101343.98;107522;1251;99166;-64
2024/04/14 10:05:44;;;;;;;;;;;;;;;29.78;28.89;101333.11;107526;1250;99188;-64
2024/04/14 10:08:12;;;;;;;;;;;;;;;30.09;27.59;101329.84;107533;1251;112854;-64
2024/04/14 10:10:43;;;;;;;;;;;;;;;30.42;27.86;101326.22;107529;1251;108493;-65
2024/04/14 10:13:13;;;;;;;;;;;;;;;30.90;27.07;101317.17;107543;1254;108590;-65
2024/04/14 10:15:45;;;;;;;;;;;;;;;31.30;27.15;101311.25;107634;1253;99262;-63
2024/04/14 10:18:15;;;;;;;;;;;;;;;31.73;26.63;101308.91;107634;1253;99193;-63
2024/04/14 10:20:44;;;;;;;;;;;;;;;31.94;25.33;101301.84;107658;1252;113360;-63
2024/04/14 10:23:17;;;;;;;;;;;;;;;32.17;25.40;101293.59;107610;1254;108144;-65
2024/04/14 10:25:49;;;;;;;;;;;;;;;32.46;23.80;101300.17;107637;1253;108950;-64
2024/04/14 10:28:21;;;;;;;;;;;;;;;32.44;24.07;101293.27;107617;1251;99192;-65
2024/04/14 10:31:03;;;;;;;;;;;;;;;32.58;23.42;101295.43;107627;1253;99175;-65
2024/04/14 10:33:31;;;;;;;;;;;;;;;32.38;23.93;101288.77;107613;1252;113576;-64
2024/04/14 10:36:01;;;;;;;;;;;;;;;32.51;24.19;101284.20;107664;1251;108596;-64
2024/04/14 10:38:31;;;;;;;;;;;;;;;32.52;23.31;101277.86;107662;1251;107042;-62
2024/04/14 10:41:00;;;;;;;;;;;;;;;32.61;23.81;101275.39;107628;1251;99262;-64
2024/04/14 10:43:29;;;;;;;;;;;;;;;32.53;22.96;101269.01;107579;1251;99172;-64
2024/04/14 10:46:00;;;;;;;;;;;;;;;32.64;22.93;101265.65;107692;1253;112662;-64
2024/04/14 10:48:29;;;;;;;;;;;;;;;32.92;22.89;101261.46;107638;1253;108136;-64
2024/04/14 10:50:59;;;;;;;;;;;;;;;33.33;22.82;101251.77;107591;1253;108493;-64
2024/04/14 10:53:28;;;;;;;;;;;;;;;33.79;22.95;101243.84;107615;1253;99259;-64
2024/04/14 10:55:56;;;;;;;;;;;;;;;34.27;22.57;101239.36;107614;1253;99272;-64
2024/04/14 10:58:29;;;;;;;;;;;;;;;34.60;21.78;101240.12;107689;1254;112541;-64
2024/04/14 11:00:57;;;;;;;;;;;;;;;34.42;20.47;101242.16;107631;1254;107546;-65
2024/04/14 11:03:26;;;;;;;;;;;;;;;34.15;20.97;101227.62;107587;1251;107114;-63
2024/04/14 11:05:54;;;;;;;;;;;;;;;34.21;21.41;101225.64;107632;1254;99378;-64
2024/04/14 11:08:24;;;;;;;;;;;;;;;34.28;21.43;101223.27;107702;1251;99301;-64
2024/04/14 11:10:52;;;;;;;;;;;;;;;34.45;20.67;101215.63;107681;1255;112537;-63
2024/04/14 11:13:24;;;;;;;;;;;;;;;34.54;21.26;101213.06;107637;1252;107824;-64
2024/04/14 11:15:58;;;;;;;;;;;;;;;34.71;21.21;101205.36;107582;1251;107616;-64
2024/04/14 11:18:27;;;;;;;;;;;;;;;34.96;20.89;101202.31;107635;1256;99191;-64
2024/04/14 11:20:55;;;;;;;;;;;;;;;35.06;20.22;101199.83;107638;1253;99166;-63
2024/04/14 11:23:24;;;;;;;;;;;;;;;34.88;19.77;101197.15;107627;1254;111989;-64
2024/04/14 11:25:54;;;;;;;;;;;;;;;34.68;19.62;101190.02;107602;1252;106741;-64
2024/04/14 11:28:22;;;;;;;;;;;;;;;34.77;20.46;101187.71;107648;1255;107959;-64
2024/04/14 11:30:51;;;;;;;;;;;;;;;34.67;19.62;101180.63;107601;1252;99213;-64
2024/04/14 11:33:22;;;;;;;;;;;;;;;34.38;20.17;101170.02;107584;1251;99278;-64
2024/04/14 11:35:57;;;;;;;;;;;;;;;34.69;20.21;101171.12;107651;1253;112700;-65
2024/04/14 11:38:26;;;;;;;;;;;;;;;34.84;19.35;101168.79;107627;1254;109016;-64
2024/04/14 11:40:54;;;;;;;;;;;;;;;34.88;19.31;101165.52;107630;1253;106877;-64
2024/04/14 11:43:23;;;;;;;;;;;;;;;34.97;19.45;101151.48;107553;1253;99229;-64
2024/04/14 11:45:51;;;;;;;;;;;;;;;35.14;19.65;101143.91;107613;1255;99194;-65
2024/04/14 11:48:20;;;;;;;;;;;;;;;35.25;19.07;101139.27;107636;1254;112982;-64
2024/04/14 11:50:48;;;;;;;;;;;;;;;35.28;19.22;101136.89;107615;1254;108980;-64
2024/04/14 11:53:16;;;;;;;;;;;;;;;35.38;19.25;101126.52;107570;1255;107570;-64
2024/04/14 11:55:45;;;;;;;;;;;;;;;35.42;19.27;101124.80;107559;1253;99211;-63
2024/04/14 11:58:16;;;;;;;;;;;;;;;35.22;19.26;101122.98;107539;1256;99176;-64
2024/04/14 12:00:44;;;;;;;;;;;;;;;35.04;19.10;101120.61;107577;1256;112312;-63
2024/04/14 12:03:12;;;;;;;;;;;;;;;34.83;19.54;101116.14;107590;1254;108723;-64
2024/04/14 12:05:40;;;;;;;;;;;;;;;35.16;19.34;101112.63;107575;1252;108501;-65
2024/04/14 12:08:08;;;;;;;;;;;;;;;35.53;19.53;101101.19;107508;1253;99709;-64
2024/04/14 12:10:36;;;;;;;;;;;;;;;36.16;18.84;101099.07;107592;1254;99156;-64
2024/04/14 12:13:06;;;;;;;;;;;;;;;36.34;18.25;101100.92;107600;1254;113061;-65
2024/04/14 12:15:34;;;;;;;;;;;;;;;36.44;18.35;101090.60;107413;1254;108715;-64
2024/04/14 12:18:02;;;;;;;;;;;;;;;36.40;18.36;101090.20;107621;1252;108737;-65
2024/04/14 12:20:32;;;;;;;;;;;;;;;36.52;18.64;101079.21;107613;1254;99175;-64
2024/04/14 12:22:59;;;;;;;;;;;;;;;36.76;18.37;101074.96;107629;1254;99079;-65
2024/04/14 12:25:28;;;;;;;;;;;;;;;36.83;18.52;101063.71;107556;1254;113206;-65
2024/04/14 12:27:57;;;;;;;;;;;;;;;36.80;18.09;101069.71;107610;1254;108308;-64